createdAt,value
2019-05-21T00:00:20.734Z,93.50
2019-05-21T00:02:49.270Z,93.80
2019-05-21T00:05:17.911Z,93.20
2019-05-21T00:07:46.645Z,93.80
2019-05-21T00:10:15.435Z,93.50
2019-05-21T00:12:44.062Z,93.40
2019-05-21T00:15:12.922Z,92.90
2019-05-21T00:17:41.498Z,93.60
2019-05-21T00:20:10.925Z,94.00
2019-05-21T00:22:39.640Z,93.90
2019-05-21T00:25:09.594Z,93.20
2019-05-21T00:27:38.401Z,93.50
2019-05-21T00:30:43.663Z,93.20
2019-05-21T00:33:49.004Z,93.70
2019-05-21T00:36:55.491Z,93.80
2019-05-21T00:40:00.598Z,93.60
2019-05-21T00:42:32.278Z,93.70
2019-05-21T00:45:01.024Z,93.40
2019-05-21T00:47:29.983Z,92.90
2019-05-21T00:49:58.674Z,93.20
2019-05-21T00:52:27.316Z,93.20
2019-05-21T00:54:56.382Z,93.10
2019-05-21T00:57:25.038Z,93.10
2019-05-21T00:59:53.825Z,92.90
2019-05-21T01:02:22.567Z,93.10
2019-05-21T01:05:00.386Z,93.00
2019-05-21T01:07:21.512Z,93.00
2019-05-21T01:09:50.206Z,92.80
2019-05-21T01:12:18.867Z,93.40
2019-05-21T01:14:47.543Z,93.50
2019-05-21T01:17:16.202Z,93.30
2019-05-21T01:19:44.793Z,92.80
2019-05-21T01:22:13.583Z,92.60
2019-05-21T01:24:42.227Z,92.70
2019-05-21T01:27:10.852Z,92.50
2019-05-21T01:29:39.474Z,93.10
2019-05-21T01:32:08.080Z,93.20
2019-05-21T01:34:36.782Z,94.00
2019-05-21T01:37:05.530Z,93.80
2019-05-21T01:39:34.123Z,93.90
2019-05-21T01:42:02.783Z,93.50
2019-05-21T01:44:31.408Z,92.50
2019-05-21T01:47:00.133Z,93.60
2019-05-21T01:49:28.730Z,93.70
2019-05-21T01:51:57.334Z,93.20
2019-05-21T01:54:25.921Z,93.90
2019-05-21T01:56:54.494Z,93.90
2019-05-21T01:59:23.146Z,94.70
2019-05-21T02:01:51.847Z,95.80
2019-05-21T02:04:20.405Z,96.30
2019-05-21T02:06:49.463Z,96.40
2019-05-21T02:09:18.220Z,96.70
2019-05-21T02:11:46.902Z,96.40
2019-05-21T02:14:15.599Z,96.10
2019-05-21T02:16:44.208Z,96.10
2019-05-21T02:19:12.918Z,96.60
2019-05-21T02:21:41.512Z,96.70
2019-05-21T02:24:10.205Z,96.10
2019-05-21T02:26:38.921Z,96.50
2019-05-21T02:29:07.532Z,97.10
2019-05-21T02:31:36.194Z,97.20
2019-05-21T02:34:04.990Z,96.90
2019-05-21T02:36:33.636Z,97.50
2019-05-21T02:39:02.245Z,98.00
2019-05-21T02:41:30.858Z,96.70
2019-05-21T02:43:59.611Z,96.50
2019-05-21T02:46:28.226Z,97.50
2019-05-21T02:48:56.819Z,96.30
2019-05-21T02:51:25.983Z,95.60
2019-05-21T02:53:54.732Z,95.50
2019-05-21T02:56:23.278Z,95.60
2019-05-21T02:58:51.956Z,95.00
2019-05-21T03:01:28.437Z,94.10
2019-05-21T03:03:57.407Z,93.50
2019-05-21T03:06:25.960Z,93.30
2019-05-21T03:08:54.741Z,93.00
2019-05-21T03:11:23.385Z,93.20
2019-05-21T03:13:52.155Z,93.00
2019-05-21T03:16:20.939Z,92.70
2019-05-21T03:18:49.507Z,92.70
2019-05-21T03:21:18.155Z,92.40
2019-05-21T03:23:46.705Z,92.20
2019-05-21T03:26:15.415Z,92.30
2019-05-21T03:28:43.995Z,91.90
2019-05-21T03:31:12.754Z,92.40
2019-05-21T03:33:41.387Z,92.10
2019-05-21T03:36:10.019Z,91.90
2019-05-21T03:38:38.635Z,91.90
2019-05-21T03:41:07.305Z,91.90
2019-05-21T03:43:35.987Z,92.30
2019-05-21T03:46:04.718Z,92.10
2019-05-21T03:48:33.315Z,91.00
2019-05-21T03:51:01.917Z,92.20
2019-05-21T03:53:30.618Z,91.90
2019-05-21T03:55:59.243Z,91.80
2019-05-21T03:58:27.846Z,91.20
2019-05-21T04:00:56.434Z,91.10
2019-05-21T04:03:25.130Z,91.90
2019-05-21T04:05:53.846Z,90.90
2019-05-21T04:08:22.433Z,91.30
2019-05-21T04:10:51.022Z,90.70
2019-05-21T04:13:19.695Z,91.50
2019-05-21T04:15:59.257Z,90.00
2019-05-21T04:18:29.597Z,90.00
2019-05-21T04:20:58.217Z,90.60
2019-05-21T04:23:26.855Z,90.40
2019-05-21T04:25:55.426Z,90.30
2019-05-21T04:28:24.006Z,90.10
2019-05-21T04:30:52.588Z,88.50
2019-05-21T04:33:21.189Z,87.80
2019-05-21T04:35:49.827Z,88.30
2019-05-21T04:38:18.402Z,89.40
2019-05-21T04:40:47.029Z,88.00
2019-05-21T04:43:15.829Z,88.20
2019-05-21T04:45:44.440Z,88.10
2019-05-21T04:48:13.075Z,88.40
2019-05-21T04:50:41.650Z,87.20
2019-05-21T04:53:10.266Z,87.10
2019-05-21T04:55:38.850Z,87.00
2019-05-21T04:58:07.419Z,85.80
2019-05-21T05:00:36.212Z,86.40
2019-05-21T05:03:04.967Z,86.80
2019-05-21T05:05:33.737Z,84.50
2019-05-21T05:08:02.428Z,84.30
2019-05-21T05:10:31.077Z,82.60
2019-05-21T05:13:00.071Z,81.40
2019-05-21T05:15:28.645Z,80.20
2019-05-21T05:17:57.337Z,79.20
2019-05-21T05:20:25.939Z,79.30
2019-05-21T05:22:54.513Z,79.30
2019-05-21T05:25:23.076Z,78.60
2019-05-21T05:27:51.764Z,77.30
2019-05-21T05:30:20.513Z,76.80
2019-05-21T05:32:49.205Z,76.80
2019-05-21T05:35:17.954Z,75.60
2019-05-21T05:37:48.718Z,75.70
2019-05-21T05:40:18.571Z,76.40
2019-05-21T05:42:47.174Z,75.00
2019-05-21T05:45:16.121Z,74.40
2019-05-21T05:47:44.725Z,73.30
2019-05-21T05:50:15.173Z,72.60
2019-05-21T05:52:43.779Z,73.00
2019-05-21T05:55:13.029Z,72.80
2019-05-21T05:57:41.783Z,72.10
2019-05-21T06:00:12.851Z,71.00
2019-05-21T06:02:41.477Z,71.90
2019-05-21T06:05:10.541Z,71.60
2019-05-21T06:07:39.133Z,72.30
2019-05-21T06:10:08.368Z,73.00
2019-05-21T06:12:37.177Z,72.10
2019-05-21T06:15:07.463Z,69.90
2019-05-21T06:17:36.081Z,71.20
2019-05-21T06:20:07.280Z,71.80
2019-05-21T06:22:35.954Z,71.40
2019-05-21T06:25:06.083Z,72.50
2019-05-21T06:27:34.853Z,70.00
2019-05-21T06:30:05.336Z,69.90
2019-05-21T06:32:34.042Z,69.00
2019-05-21T06:35:02.886Z,68.50
2019-05-21T06:37:31.544Z,68.70
2019-05-21T06:40:00.265Z,65.80
2019-05-21T06:42:28.923Z,64.10
2019-05-21T06:44:57.630Z,62.20
2019-05-21T06:47:26.526Z,57.40
2019-05-21T06:49:55.093Z,54.60
2019-05-21T06:52:23.906Z,56.20
2019-05-21T06:54:52.554Z,56.10
2019-05-21T06:57:21.314Z,54.80
2019-05-21T06:59:50.077Z,52.60
2019-05-21T07:02:18.773Z,49.10
2019-05-21T07:04:47.398Z,47.40
2019-05-21T07:07:16.255Z,46.40
2019-05-21T07:09:44.962Z,47.00
2019-05-21T07:12:13.662Z,45.70
2019-05-21T07:14:42.371Z,46.40
2019-05-21T07:17:11.198Z,44.40
2019-05-21T07:19:39.725Z,43.90
2019-05-21T07:22:12.748Z,47.00
2019-05-21T07:24:38.823Z,50.40
2019-05-21T07:27:07.479Z,50.20
2019-05-21T07:29:36.266Z,53.70
2019-05-21T07:32:04.957Z,55.90
2019-05-21T07:34:33.653Z,57.00
2019-05-21T07:37:02.286Z,59.60
2019-05-21T07:39:30.922Z,57.10
2019-05-21T07:41:59.688Z,54.50
2019-05-21T07:44:28.280Z,53.80
2019-05-21T07:46:56.935Z,52.60
2019-05-21T07:49:25.755Z,50.20
2019-05-21T07:51:54.565Z,48.50
2019-05-21T07:54:23.183Z,49.00
2019-05-21T07:56:51.763Z,49.10
2019-05-21T07:59:20.369Z,48.50
2019-05-21T08:01:48.975Z,47.20
2019-05-21T08:04:17.795Z,45.40
2019-05-21T08:06:46.743Z,45.60
2019-05-21T08:09:15.471Z,47.10
2019-05-21T08:11:46.926Z,48.00
2019-05-21T08:14:14.345Z,47.60
2019-05-21T08:16:43.012Z,48.00
2019-05-21T08:19:11.633Z,47.60
2019-05-21T08:21:40.279Z,48.00
2019-05-21T08:24:08.956Z,47.50
2019-05-21T08:26:37.674Z,46.10
2019-05-21T08:29:06.345Z,45.40
2019-05-21T08:31:35.164Z,43.60
2019-05-21T08:34:04.137Z,47.90
2019-05-21T08:36:32.807Z,48.90
2019-05-21T08:39:01.430Z,47.90
2019-05-21T08:41:30.216Z,43.80
2019-05-21T08:43:58.839Z,42.40
2019-05-21T08:46:27.482Z,42.40
2019-05-21T08:48:56.224Z,42.10
2019-05-21T08:51:24.809Z,43.20
2019-05-21T08:53:53.545Z,47.40
2019-05-21T08:56:22.154Z,47.10
2019-05-21T08:58:50.722Z,46.20
2019-05-21T09:01:19.411Z,45.50
2019-05-21T09:03:48.134Z,43.30
2019-05-21T09:06:16.877Z,43.20
2019-05-21T09:08:45.476Z,45.80
2019-05-21T09:11:14.219Z,49.40
2019-05-21T09:13:42.783Z,49.00
2019-05-21T09:16:11.357Z,49.10
2019-05-21T09:18:40.015Z,50.30
2019-05-21T09:21:08.842Z,49.30
2019-05-21T09:23:37.520Z,48.70
2019-05-21T09:26:06.228Z,46.60
2019-05-21T09:28:34.843Z,43.90
2019-05-21T09:31:04.506Z,43.30
2019-05-21T09:33:33.175Z,43.90
2019-05-21T09:36:01.926Z,43.90
2019-05-21T09:38:30.541Z,42.30
2019-05-21T09:40:59.372Z,41.90
2019-05-21T09:43:27.959Z,41.10
2019-05-21T09:45:56.604Z,42.60
2019-05-21T09:48:25.420Z,44.10
2019-05-21T09:50:54.162Z,43.90
2019-05-21T09:53:22.946Z,43.40
2019-05-21T09:55:51.503Z,40.20
2019-05-21T09:58:21.725Z,40.90
2019-05-21T10:01:08.810Z,41.30
2019-05-21T10:03:44.856Z,37.60
2019-05-21T10:06:13.575Z,39.80
2019-05-21T10:08:42.137Z,38.30
2019-05-21T10:11:10.862Z,40.20
2019-05-21T10:13:39.434Z,40.20
2019-05-21T10:16:08.059Z,40.00
2019-05-21T10:18:36.726Z,39.00
2019-05-21T10:21:05.543Z,39.60
2019-05-21T10:23:34.211Z,38.20
2019-05-21T10:26:02.971Z,38.60
2019-05-21T10:28:31.545Z,37.70
2019-05-21T10:31:00.185Z,38.60
2019-05-21T10:33:28.818Z,34.40
2019-05-21T10:35:57.461Z,35.40
2019-05-21T10:38:26.190Z,35.80
2019-05-21T10:40:55.063Z,35.60
2019-05-21T10:43:23.790Z,33.00
2019-05-21T10:45:52.460Z,33.20
2019-05-21T10:48:21.122Z,31.40
2019-05-21T10:50:49.748Z,32.60
2019-05-21T10:53:18.585Z,33.10
2019-05-21T10:55:47.234Z,32.70
2019-05-21T10:58:16.077Z,35.00
2019-05-21T11:00:46.510Z,33.70
2019-05-21T11:03:17.007Z,34.00
2019-05-21T11:05:47.406Z,36.20
2019-05-21T11:08:24.815Z,39.70
2019-05-21T11:10:46.474Z,38.20
2019-05-21T11:13:15.133Z,38.70
2019-05-21T11:15:43.813Z,38.00
2019-05-21T11:18:12.567Z,38.50
2019-05-21T11:20:41.949Z,40.00
2019-05-21T11:23:10.647Z,42.20
2019-05-21T11:25:39.316Z,41.20
2019-05-21T11:28:08.111Z,40.10
2019-05-21T11:30:36.862Z,41.80
2019-05-21T11:33:05.505Z,42.40
2019-05-21T11:35:36.233Z,41.90
2019-05-21T11:38:04.610Z,42.10
2019-05-21T11:40:33.643Z,40.50
2019-05-21T11:43:02.270Z,39.50
2019-05-21T11:45:32.701Z,40.40
2019-05-21T11:48:01.330Z,40.80
2019-05-21T11:50:30.061Z,42.40
2019-05-21T11:52:58.730Z,43.40
2019-05-21T11:55:27.389Z,43.80
2019-05-21T11:57:56.143Z,43.90
2019-05-21T12:00:25.966Z,44.60
2019-05-21T12:02:54.744Z,44.50
2019-05-21T12:05:23.475Z,43.30
2019-05-21T12:07:52.170Z,43.60
2019-05-21T12:10:20.934Z,42.90
2019-05-21T12:12:49.793Z,43.60
2019-05-21T12:15:18.738Z,44.40
2019-05-21T12:17:47.326Z,43.40
2019-05-21T12:20:16.542Z,43.10
2019-05-21T12:22:45.267Z,42.90
2019-05-21T12:25:14.075Z,42.90
2019-05-21T12:27:42.663Z,42.70
2019-05-21T12:30:12.301Z,42.60
2019-05-21T12:32:40.910Z,42.20
2019-05-21T12:35:09.741Z,41.30
2019-05-21T12:37:38.334Z,41.80
2019-05-21T12:40:08.270Z,42.70
2019-05-21T12:42:36.836Z,43.60
2019-05-21T12:45:07.154Z,42.50
2019-05-21T12:47:35.851Z,42.30
2019-05-21T12:50:05.675Z,43.10
2019-05-21T12:52:34.341Z,41.90
2019-05-21T12:55:04.253Z,42.90
2019-05-21T12:57:32.866Z,43.00
2019-05-21T13:00:01.564Z,43.20
2019-05-21T13:02:30.213Z,43.90
2019-05-21T13:04:58.777Z,42.90
2019-05-21T13:07:27.455Z,42.50
2019-05-21T13:09:57.389Z,43.20
2019-05-21T13:12:26.011Z,43.80
2019-05-21T13:14:54.736Z,44.10
2019-05-21T13:17:23.323Z,44.10
2019-05-21T13:19:52.050Z,44.10
2019-05-21T13:22:20.654Z,44.10
2019-05-21T13:24:49.345Z,43.90
2019-05-21T13:27:17.993Z,43.50
2019-05-21T13:29:46.711Z,43.20
2019-05-21T13:32:15.540Z,43.20
2019-05-21T13:34:44.189Z,43.00
2019-05-21T13:37:12.797Z,42.60
2019-05-21T13:39:49.988Z,41.80
2019-05-21T13:42:11.787Z,41.80
2019-05-21T13:44:40.426Z,42.10
2019-05-21T13:47:09.148Z,42.50
2019-05-21T13:49:37.767Z,42.50
2019-05-21T13:52:06.701Z,42.60
2019-05-21T13:54:35.459Z,42.10
2019-05-21T13:57:04.586Z,43.50
2019-05-21T13:59:33.387Z,44.00
2019-05-21T14:02:02.072Z,44.00
2019-05-21T14:04:30.813Z,44.60
2019-05-21T14:06:59.470Z,44.10
2019-05-21T14:09:28.206Z,43.90
2019-05-21T14:11:56.874Z,44.40
2019-05-21T14:14:25.635Z,43.10
2019-05-21T14:16:54.199Z,42.20
2019-05-21T14:19:22.784Z,41.20
2019-05-21T14:21:51.479Z,41.20
2019-05-21T14:24:20.046Z,39.60
2019-05-21T14:26:48.716Z,40.60
2019-05-21T14:29:17.313Z,39.10
2019-05-21T14:31:45.902Z,39.20
2019-05-21T14:34:14.523Z,41.00
2019-05-21T14:36:43.147Z,42.50
2019-05-21T14:39:13.431Z,43.00
2019-05-21T14:41:42.100Z,42.70
2019-05-21T14:44:10.699Z,43.50
2019-05-21T14:46:39.400Z,43.50
2019-05-21T14:49:08.027Z,43.60
2019-05-21T14:51:36.671Z,44.00
2019-05-21T14:54:05.685Z,44.00
2019-05-21T14:56:34.344Z,44.10
2019-05-21T14:59:02.979Z,44.00
2019-05-21T15:01:31.697Z,44.70
2019-05-21T15:04:00.457Z,46.20
2019-05-21T15:06:29.264Z,47.60
2019-05-21T15:08:57.902Z,49.70
2019-05-21T15:11:26.511Z,50.60
2019-05-21T15:13:55.168Z,52.10
2019-05-21T15:16:23.859Z,51.70
2019-05-21T15:18:52.540Z,52.00
2019-05-21T15:21:22.805Z,52.50
2019-05-21T15:23:51.685Z,52.80
2019-05-21T15:26:20.418Z,52.30
2019-05-21T15:28:49.003Z,51.90
2019-05-21T15:31:17.751Z,52.00
2019-05-21T15:33:46.632Z,52.50
2019-05-21T15:36:15.304Z,52.10
2019-05-21T15:38:50.296Z,52.40
2019-05-21T15:41:14.239Z,52.70
2019-05-21T15:43:43.135Z,52.60
2019-05-21T15:46:11.877Z,52.70
2019-05-21T15:48:40.592Z,52.60
2019-05-21T15:51:09.259Z,53.40
2019-05-21T15:53:37.865Z,53.00
2019-05-21T15:56:06.641Z,52.90
2019-05-21T15:58:35.213Z,52.80
2019-05-21T16:01:04.206Z,52.80
2019-05-21T16:03:33.018Z,52.80
2019-05-21T16:06:01.706Z,52.40
2019-05-21T16:08:30.357Z,52.40
2019-05-21T16:10:58.978Z,52.30
2019-05-21T16:13:27.699Z,52.20
2019-05-21T16:15:56.437Z,51.90
2019-05-21T16:18:25.102Z,52.20
2019-05-21T16:20:53.767Z,51.90
2019-05-21T16:23:22.365Z,52.00
2019-05-21T16:25:51.133Z,52.00
2019-05-21T16:28:19.750Z,52.00
2019-05-21T16:30:48.464Z,52.00
2019-05-21T16:33:17.327Z,52.00
2019-05-21T16:35:45.981Z,52.50
2019-05-21T16:38:15.121Z,52.50
2019-05-21T16:40:43.788Z,52.90
2019-05-21T16:43:12.448Z,52.60
2019-05-21T16:45:41.122Z,52.60
2019-05-21T16:48:10.141Z,52.60
2019-05-21T16:50:38.742Z,52.40
2019-05-21T16:53:07.390Z,52.70
2019-05-21T16:55:36.219Z,52.30
2019-05-21T16:58:05.230Z,52.30
2019-05-21T17:00:33.960Z,52.10
2019-05-21T17:03:02.765Z,51.90
2019-05-21T17:05:31.427Z,52.30
2019-05-21T17:08:00.060Z,51.70
2019-05-21T17:10:30.095Z,51.30
2019-05-21T17:12:58.717Z,51.10
2019-05-21T17:15:27.430Z,51.10
2019-05-21T17:17:56.023Z,51.10
2019-05-21T17:20:24.659Z,52.00
2019-05-21T17:22:53.281Z,53.70
2019-05-21T17:25:21.983Z,54.20
2019-05-21T17:27:50.784Z,54.40
2019-05-21T17:30:19.879Z,54.10
2019-05-21T17:32:48.517Z,54.50
2019-05-21T17:35:17.472Z,54.30
2019-05-21T17:37:46.149Z,54.50
2019-05-21T17:40:15.315Z,56.30
2019-05-21T17:42:44.078Z,57.30
2019-05-21T17:45:12.984Z,57.70
2019-05-21T17:47:41.754Z,58.40
2019-05-21T17:50:10.803Z,60.00
2019-05-21T17:52:39.469Z,59.90
2019-05-21T17:55:08.597Z,59.90
2019-05-21T17:57:37.902Z,59.00
2019-05-21T18:00:08.202Z,58.70
2019-05-21T18:02:36.998Z,58.50
2019-05-21T18:05:09.326Z,58.30
2019-05-21T18:07:38.579Z,58.20
2019-05-21T18:10:09.331Z,59.20
2019-05-21T18:12:38.754Z,58.40
2019-05-21T18:15:10.254Z,58.80
2019-05-21T18:17:39.554Z,59.60
2019-05-21T18:20:09.286Z,59.90
2019-05-21T18:22:40.194Z,59.10
2019-05-21T18:25:09.545Z,58.30
2019-05-21T18:27:38.752Z,57.60
2019-05-21T18:30:08.490Z,58.20
2019-05-21T18:32:37.522Z,59.20
2019-05-21T18:35:09.725Z,59.80
2019-05-21T18:37:39.238Z,60.30
2019-05-21T18:40:08.984Z,60.60
2019-05-21T18:42:37.722Z,58.00
2019-05-21T18:45:06.777Z,58.00
2019-05-21T18:47:35.435Z,58.70
2019-05-21T18:50:06.733Z,59.60
2019-05-21T18:52:35.427Z,61.20
2019-05-21T18:55:05.386Z,62.70
2019-05-21T18:57:34.204Z,63.40
2019-05-21T19:00:03.530Z,64.10
2019-05-21T19:02:32.242Z,66.10
2019-05-21T19:05:00.875Z,68.30
2019-05-21T19:07:29.586Z,70.40
2019-05-21T19:10:00.877Z,73.90
2019-05-21T19:12:37.453Z,74.00
2019-05-21T19:14:58.885Z,75.70
2019-05-21T19:17:35.057Z,78.40
2019-05-21T19:19:57.807Z,80.00
2019-05-21T19:22:27.681Z,80.30
2019-05-21T19:24:56.483Z,79.30
2019-05-21T19:27:25.113Z,79.90
2019-05-21T19:29:53.851Z,80.60
2019-05-21T19:32:22.583Z,79.10
2019-05-21T19:34:51.244Z,77.80
2019-05-21T19:37:19.833Z,78.10
2019-05-21T19:39:48.434Z,78.30
2019-05-21T19:42:17.095Z,77.20
2019-05-21T19:44:45.822Z,78.00
2019-05-21T19:47:14.510Z,78.70
2019-05-21T19:49:43.101Z,77.50
2019-05-21T19:52:11.999Z,75.90
2019-05-21T19:54:40.672Z,76.10
2019-05-21T19:57:09.472Z,78.40
2019-05-21T19:59:38.170Z,78.70
2019-05-21T20:02:08.255Z,78.90
2019-05-21T20:04:37.016Z,80.50
2019-05-21T20:07:07.257Z,80.40
2019-05-21T20:09:37.996Z,80.40
2019-05-21T20:12:07.914Z,80.10
2019-05-21T20:14:36.917Z,79.70
2019-05-21T20:17:07.457Z,79.30
2019-05-21T20:19:36.469Z,79.70
2019-05-21T20:22:05.542Z,81.20
2019-05-21T20:24:34.232Z,80.00
2019-05-21T20:27:04.429Z,79.60
2019-05-21T20:29:33.153Z,79.80
2019-05-21T20:32:03.413Z,78.70
2019-05-21T20:34:32.035Z,79.10
2019-05-21T20:37:00.694Z,79.30
2019-05-21T20:39:30.793Z,79.10
2019-05-21T20:41:59.840Z,78.50
2019-05-21T20:44:28.547Z,78.30
2019-05-21T20:46:57.716Z,78.10
2019-05-21T20:49:27.574Z,78.00
2019-05-21T20:51:56.578Z,78.40
2019-05-21T20:54:26.157Z,78.60
2019-05-21T20:56:55.017Z,78.40
2019-05-21T20:59:23.638Z,78.40
2019-05-21T21:01:52.218Z,78.40
2019-05-21T21:04:21.290Z,78.30
2019-05-21T21:06:50.440Z,78.90
2019-05-21T21:09:19.329Z,78.40
2019-05-21T21:11:47.922Z,78.80
2019-05-21T21:14:18.566Z,78.60
2019-05-21T21:16:47.578Z,78.50
2019-05-21T21:19:16.174Z,79.20
2019-05-21T21:21:45.296Z,79.20
2019-05-21T21:24:13.945Z,79.40
2019-05-21T21:26:43.140Z,79.30
2019-05-21T21:29:12.243Z,79.20
2019-05-21T21:31:41.029Z,79.80
2019-05-21T21:34:09.682Z,80.10
2019-05-21T21:36:38.605Z,80.00
2019-05-21T21:39:07.824Z,80.20
2019-05-21T21:41:36.736Z,81.00
2019-05-21T21:44:05.656Z,82.80
2019-05-21T21:46:34.335Z,84.80
2019-05-21T21:49:03.270Z,86.40
2019-05-21T21:51:32.529Z,87.90
2019-05-21T21:54:01.627Z,88.20
2019-05-21T21:56:30.311Z,88.50
2019-05-21T21:58:58.990Z,88.70
2019-05-21T22:01:35.303Z,89.30
2019-05-21T22:04:06.043Z,88.90
2019-05-21T22:06:37.122Z,89.90
2019-05-21T22:09:08.116Z,90.40
2019-05-21T22:11:37.129Z,90.40
2019-05-21T22:14:06.656Z,90.40
2019-05-21T22:16:35.719Z,90.50
2019-05-21T22:19:06.186Z,90.40
2019-05-21T22:21:35.772Z,90.60
2019-05-21T22:24:04.929Z,90.80
2019-05-21T22:26:33.659Z,90.60
2019-05-21T22:29:02.602Z,91.20
2019-05-21T22:31:31.205Z,91.40
2019-05-21T22:34:00.056Z,91.40
2019-05-21T22:36:29.001Z,91.10
2019-05-21T22:38:57.757Z,91.90
2019-05-21T22:41:26.576Z,91.40
2019-05-21T22:43:55.282Z,91.70
2019-05-21T22:46:24.036Z,91.10
2019-05-21T22:48:52.701Z,91.10
2019-05-21T22:51:21.341Z,91.00
2019-05-21T22:53:50.110Z,91.80
2019-05-21T22:56:18.774Z,91.60
2019-05-21T22:58:47.413Z,91.90
2019-05-21T23:01:16.613Z,91.40
2019-05-21T23:03:45.380Z,91.50
2019-05-21T23:06:14.291Z,92.00
2019-05-21T23:08:43.361Z,91.50
2019-05-21T23:11:11.971Z,92.00
2019-05-21T23:13:40.623Z,92.00
2019-05-21T23:16:10.316Z,92.10
2019-05-21T23:18:39.172Z,91.80
2019-05-21T23:21:08.641Z,91.80
2019-05-21T23:23:37.574Z,92.20
2019-05-21T23:26:07.745Z,92.10
2019-05-21T23:28:36.782Z,92.30
2019-05-21T23:31:06.187Z,92.30
2019-05-21T23:33:36.099Z,92.50
2019-05-21T23:36:05.903Z,92.60
2019-05-21T23:38:36.708Z,92.60
2019-05-21T23:41:05.979Z,92.70
2019-05-21T23:43:35.128Z,92.80
2019-05-21T23:46:05.706Z,93.00
2019-05-21T23:48:35.543Z,92.90
2019-05-21T23:51:04.282Z,92.80
2019-05-21T23:53:33.273Z,92.90
2019-05-21T23:56:01.954Z,92.80
2019-05-21T23:58:30.994Z,93.00
